createdAt,value
2022-11-02T00:00:00.248Z,0
2022-11-02T00:05:00.220Z,0
2022-11-02T00:10:00.225Z,0
2022-11-02T00:15:00.185Z,0
2022-11-02T00:20:00.202Z,0
2022-11-02T00:25:00.268Z,0
2022-11-02T00:30:00.241Z,0
2022-11-02T00:35:00.203Z,0
2022-11-02T00:40:00.196Z,0
2022-11-02T00:45:00.185Z,0
2022-11-02T00:50:00.208Z,0
2022-11-02T00:55:00.196Z,0
2022-11-02T01:00:00.220Z,0
2022-11-02T01:05:00.180Z,0
2022-11-02T01:10:00.213Z,0
2022-11-02T01:15:00.240Z,0
2022-11-02T01:20:00.213Z,0
2022-11-02T01:25:00.191Z,0
2022-11-02T01:30:00.249Z,0
2022-11-02T01:35:00.196Z,0
2022-11-02T01:40:00.354Z,0
2022-11-02T01:45:00.190Z,0
2022-11-02T01:50:00.207Z,0
2022-11-02T01:55:00.203Z,0
2022-11-02T02:00:00.218Z,0
2022-11-02T02:05:00.170Z,0
2022-11-02T02:10:00.213Z,0
2022-11-02T02:15:00.186Z,0
2022-11-02T02:20:00.216Z,0
2022-11-02T02:25:00.212Z,0
2022-11-02T02:30:00.224Z,0
2022-11-02T02:35:00.171Z,0
2022-11-02T02:40:00.223Z,0
2022-11-02T02:45:00.379Z,0
2022-11-02T02:50:00.185Z,0
2022-11-02T02:55:00.173Z,1
2022-11-02T03:00:00.237Z,1
2022-11-02T03:05:00.267Z,1
2022-11-02T03:10:00.233Z,0
2022-11-02T03:15:00.236Z,1
2022-11-02T03:20:00.424Z,1
2022-11-02T03:25:00.169Z,2
2022-11-02T03:30:00.314Z,1
2022-11-02T03:35:00.193Z,2
2022-11-02T03:40:00.197Z,2
2022-11-02T03:45:00.181Z,1
2022-11-02T03:50:00.210Z,1
2022-11-02T03:55:00.188Z,1
2022-11-02T04:00:00.203Z,1
2022-11-02T04:05:00.208Z,0
2022-11-02T04:10:00.204Z,1
2022-11-02T04:15:00.216Z,0
2022-11-02T04:20:00.232Z,0
2022-11-02T04:25:00.233Z,1
2022-11-02T04:30:00.193Z,1
2022-11-02T04:35:00.172Z,1
2022-11-02T04:40:00.201Z,0
2022-11-02T04:45:00.207Z,0
2022-11-02T04:50:00.192Z,1
2022-11-02T04:55:00.183Z,0
2022-11-02T05:00:00.232Z,0
2022-11-02T05:05:00.203Z,1
2022-11-02T05:10:00.246Z,1
2022-11-02T05:15:00.207Z,0
2022-11-02T05:20:00.208Z,1
2022-11-02T05:25:00.181Z,1
2022-11-02T05:30:00.224Z,1
2022-11-02T05:35:00.195Z,0
2022-11-02T05:40:00.223Z,1
2022-11-02T05:45:00.185Z,2
2022-11-02T05:50:00.206Z,1
2022-11-02T05:55:00.204Z,0
2022-11-02T06:00:00.264Z,1
2022-11-02T06:05:00.303Z,0
2022-11-02T06:10:00.223Z,0
2022-11-02T06:15:00.202Z,0
2022-11-02T06:20:00.214Z,1
2022-11-02T06:25:00.178Z,0
2022-11-02T06:30:00.216Z,1
2022-11-02T06:35:00.198Z,1
2022-11-02T06:40:00.262Z,0
2022-11-02T06:45:00.194Z,1
2022-11-02T06:50:00.198Z,0
2022-11-02T06:55:00.172Z,0
2022-11-02T07:00:00.318Z,1
2022-11-02T07:10:00.195Z,0
2022-11-02T07:20:00.217Z,1
2022-11-02T07:25:00.180Z,1
2022-11-02T07:30:00.259Z,1
2022-11-02T07:35:00.199Z,1
2022-11-02T07:40:00.228Z,2
2022-11-02T07:45:00.187Z,3
2022-11-02T07:50:00.267Z,3
2022-11-02T07:55:00.188Z,2
2022-11-02T08:00:00.254Z,3
2022-11-02T08:05:00.202Z,2
2022-11-02T08:10:00.217Z,2
2022-11-02T08:15:03.480Z,2
2022-11-02T08:20:00.241Z,3
2022-11-02T08:30:00.217Z,3
2022-11-02T08:35:00.188Z,3
2022-11-02T08:40:00.240Z,4
2022-11-02T08:45:00.177Z,2
2022-11-02T08:50:00.365Z,2
2022-11-02T08:55:00.181Z,2
2022-11-02T09:00:00.280Z,3
2022-11-02T09:05:00.168Z,3
2022-11-02T09:10:00.212Z,3
2022-11-02T09:15:00.219Z,5
2022-11-02T09:20:00.227Z,4
2022-11-02T09:25:00.179Z,4
2022-11-02T09:30:00.253Z,4
2022-11-02T09:35:00.179Z,5
2022-11-02T09:40:00.198Z,5
2022-11-02T09:45:00.187Z,5
2022-11-02T09:50:00.219Z,5
2022-11-02T09:55:00.228Z,5
2022-11-02T10:00:00.315Z,6
2022-11-02T10:05:00.220Z,5
2022-11-02T10:10:00.231Z,3
2022-11-02T10:15:00.195Z,4
2022-11-02T10:20:00.504Z,5
2022-11-02T10:25:00.167Z,6
2022-11-02T10:30:00.314Z,6
2022-11-02T10:35:17.385Z,5
2022-11-02T10:40:00.261Z,6
2022-11-02T10:45:00.178Z,6
2022-11-02T10:50:00.225Z,4
2022-11-02T10:55:00.174Z,5
2022-11-02T11:00:00.239Z,6
2022-11-02T11:05:00.231Z,6
2022-11-02T11:10:00.217Z,5
2022-11-02T11:20:02.749Z,5
2022-11-02T11:25:00.180Z,5
2022-11-02T11:30:00.224Z,5
2022-11-02T11:35:00.187Z,5
2022-11-02T11:40:00.296Z,5
2022-11-02T11:45:00.206Z,5
2022-11-02T11:50:09.083Z,5
2022-11-02T11:55:00.275Z,6
2022-11-02T12:00:00.227Z,6
2022-11-02T12:05:00.278Z,6
2022-11-02T12:10:00.198Z,5
2022-11-02T12:15:03.995Z,6
2022-11-02T12:20:00.318Z,5
2022-11-02T12:25:00.179Z,6
2022-11-02T12:30:00.238Z,5
2022-11-02T12:35:23.450Z,5
2022-11-02T12:40:00.205Z,6
2022-11-02T12:45:00.195Z,5
2022-11-02T12:50:00.206Z,5
2022-11-02T12:55:00.182Z,5
2022-11-02T13:00:00.354Z,5
2022-11-02T13:05:00.205Z,5
2022-11-02T13:10:00.223Z,5
2022-11-02T13:15:00.242Z,5
2022-11-02T13:20:00.226Z,5
2022-11-02T13:25:00.243Z,4
2022-11-02T13:30:00.227Z,5
2022-11-02T13:35:00.199Z,4
2022-11-02T13:40:00.209Z,4
2022-11-02T13:45:00.211Z,5
2022-11-02T13:50:00.220Z,4
2022-11-02T13:55:00.291Z,4
2022-11-02T14:00:00.221Z,5
2022-11-02T14:05:00.182Z,7
2022-11-02T14:10:00.230Z,6
2022-11-02T14:15:00.179Z,5
2022-11-02T14:20:00.549Z,5
2022-11-02T14:25:00.181Z,5
2022-11-02T14:30:00.239Z,6
2022-11-02T14:35:00.188Z,5
2022-11-02T14:40:00.226Z,4
2022-11-02T14:45:00.270Z,4
2022-11-02T14:50:00.206Z,4
2022-11-02T14:55:00.197Z,6
2022-11-02T15:00:00.226Z,5
2022-11-02T15:05:00.202Z,5
2022-11-02T15:10:00.324Z,5
2022-11-02T15:15:00.174Z,4
2022-11-02T15:20:00.206Z,5
2022-11-02T15:25:00.184Z,4
2022-11-02T15:30:00.259Z,4
2022-11-02T15:35:00.183Z,4
2022-11-02T15:40:00.211Z,4
2022-11-02T15:45:02.309Z,4
2022-11-02T15:50:00.217Z,4
2022-11-02T15:55:00.179Z,3
2022-11-02T16:00:00.210Z,3
2022-11-02T16:05:00.341Z,4
2022-11-02T16:10:00.211Z,3
2022-11-02T16:15:00.217Z,3
2022-11-02T16:20:00.248Z,3
2022-11-02T16:25:00.181Z,3
2022-11-02T16:30:00.232Z,2
2022-11-02T16:35:00.191Z,3
2022-11-02T16:40:00.240Z,3
2022-11-02T16:45:00.265Z,3
2022-11-02T16:50:00.292Z,4
2022-11-02T16:55:00.197Z,3
2022-11-02T17:00:00.277Z,3
2022-11-02T17:05:02.288Z,3
2022-11-02T17:10:00.244Z,2
2022-11-02T17:20:00.261Z,2
2022-11-02T17:35:00.205Z,1
2022-11-02T17:45:00.273Z,3
2022-11-02T17:50:00.229Z,2
2022-11-02T17:55:00.237Z,1
2022-11-02T18:05:00.259Z,1
2022-11-02T18:10:00.453Z,1
2022-11-02T18:15:00.261Z,1
2022-11-02T18:20:00.375Z,1
2022-11-02T18:25:00.272Z,1
2022-11-02T18:30:00.354Z,1
2022-11-02T18:35:00.254Z,1
2022-11-02T18:40:00.260Z,1
2022-11-02T18:45:00.265Z,1
2022-11-02T18:50:00.303Z,1
2022-11-02T18:55:00.781Z,1
2022-11-02T19:00:00.288Z,1
2022-11-02T19:05:00.205Z,1
2022-11-02T19:10:03.562Z,1
2022-11-02T19:15:00.329Z,0
2022-11-02T19:20:00.275Z,1
2022-11-02T19:25:00.504Z,0
2022-11-02T19:30:00.366Z,0
2022-11-02T19:35:00.229Z,0
2022-11-02T19:40:00.223Z,0
2022-11-02T19:45:00.209Z,0
2022-11-02T19:50:00.253Z,0
2022-11-02T19:55:00.201Z,0
2022-11-02T20:00:00.216Z,0
2022-11-02T20:05:00.190Z,0
2022-11-02T20:10:00.224Z,0
2022-11-02T20:15:00.179Z,0
2022-11-02T20:20:00.245Z,0
2022-11-02T20:25:00.206Z,0
2022-11-02T20:30:00.220Z,0
2022-11-02T20:35:00.172Z,0
2022-11-02T20:40:00.200Z,0
2022-11-02T20:45:00.192Z,0
2022-11-02T20:50:00.222Z,0
2022-11-02T20:55:00.185Z,0
2022-11-02T21:00:00.232Z,0
2022-11-02T21:05:00.176Z,0
2022-11-02T21:10:00.412Z,0
2022-11-02T21:15:00.209Z,0
2022-11-02T21:20:14.081Z,0
2022-11-02T21:25:00.169Z,0
2022-11-02T21:30:00.211Z,0
2022-11-02T21:35:00.266Z,1
2022-11-02T21:40:00.227Z,1
2022-11-02T21:45:00.178Z,0
2022-11-02T21:50:00.227Z,0
2022-11-02T21:55:00.207Z,0
2022-11-02T22:00:00.241Z,0
2022-11-02T22:05:00.177Z,1
2022-11-02T22:10:00.217Z,1
2022-11-02T22:15:00.210Z,0
2022-11-02T22:20:00.201Z,0
2022-11-02T22:25:00.184Z,0
2022-11-02T22:30:00.261Z,0
2022-11-02T22:35:00.230Z,1
2022-11-02T22:40:00.194Z,0
2022-11-02T22:45:00.226Z,0
2022-11-02T22:50:00.221Z,0
2022-11-02T22:55:00.389Z,0
2022-11-02T23:00:00.263Z,0
2022-11-02T23:05:00.169Z,0
2022-11-02T23:10:00.216Z,0
2022-11-02T23:15:00.202Z,0
2022-11-02T23:20:00.209Z,0
2022-11-02T23:25:00.257Z,0
2022-11-02T23:30:00.233Z,0
2022-11-02T23:35:00.184Z,0
2022-11-02T23:40:00.207Z,0
2022-11-02T23:45:00.197Z,0
2022-11-02T23:50:00.191Z,0
2022-11-02T23:55:00.191Z,0
